Latest Weather Observations for Yarram Airport

IDV60801

Issued at 6:35 pm EST Friday 25 July 2014 (issued every 30 minutes, with the page automatically refreshed every 10 minutes)

About weather observations | Map of weather stations | Latest weather observations for VIC | Other Formats
Station Details ID: 085151 Name: YARRAM AIRPORT Lat: -38.56 Lon: 146.75 Height: 17.9 m
Data from the previous 72 hours. | See also: Recent months at Yarram Airport
Date/Time
EST
Temp
°C
App
Temp
°C
Dew
Point
Rel
Hum
%
Delta-T
°C
Wind Press
QNH
hPa
Press
MSL
hPa
Rain
since 9 am
mm
Dir
 
Spd
km/h
Gust
km/h
Spd
kts
Gust
kts
25/06:30pm 13.4 11.2 7.8 69 2.8 NNW 9 11 5 6 1017.6 - 0.0
25/06:00pm 12.5 10.3 8.0 74 2.2 NNW 9 13 5 7 1017.3 1017.4 0.0
25/05:30pm 14.1 10.4 7.9 66 3.1 NW 17 22 9 12 1016.9 - 0.0
25/05:00pm 13.3 11.7 8.6 73 2.3 WNW 7 11 4 6 1016.7 1016.8 0.0
25/04:30pm 15.1 13.4 9.7 70 2.8 NW 9 11 5 6 1016.5 - 0.0
25/04:00pm 16.0 13.2 8.5 61 3.8 NW 13 17 7 9 1016.2 1016.3 0.0
25/03:30pm 17.8 15.0 8.4 54 4.8 NNW 13 17 7 9 1016.0 - 0.0
25/03:00pm 15.9 14.0 8.9 63 3.6 NW 9 13 5 7 1016.0 1016.1 0.0
25/02:30pm 15.7 13.4 8.9 64 3.5 NNW 11 15 6 8 1015.8 - 0.0
25/02:00pm 16.3 12.9 7.8 57 4.3 N 15 20 8 11 1015.6 1015.7 0.0
25/01:30pm 17.4 14.5 8.3 55 4.7 NNW 13 19 7 10 1015.7 - 0.0
25/01:00pm 17.1 14.1 7.7 54 4.7 NNW 13 30 7 16 1015.9 1016.0 0.0
25/12:30pm 16.6 14.0 9.3 62 3.8 N 13 19 7 10 1016.3 - 0.0
25/12:00pm 16.3 12.4 8.8 61 3.8 N 19 22 10 12 1016.6 1016.7 0.0
25/11:30am 16.2 13.2 9.2 63 3.6 N 15 20 8 11 1017.0 - 0.0
25/11:00am 16.0 12.4 8.5 61 3.8 N 17 24 9 13 1017.0 1017.1 0.0
25/10:30am 16.0 12.2 9.0 63 3.6 N 19 26 10 14 1017.0 - 0.0
25/10:00am 16.3 12.4 8.8 61 3.8 N 19 28 10 15 1017.0 1017.1 0.0
25/09:30am 14.5 14.4 9.3 71 2.7 CALM 0 2 0 1 1016.8 - 0.0
25/09:00am 12.5 12.4 9.5 82 1.5 CALM 0 0 0 0 1016.6 1016.7 0.2
25/08:30am 10.3 9.6 8.7 90 0.8 S 2 7 1 4 1016.4 - 0.2
25/08:00am 9.7 8.5 8.0 89 0.8 WSW 4 7 2 4 1016.0 1016.1 0.2
25/07:30am 10.0 7.8 7.8 86 1.1 W 9 11 5 6 1015.6 - 0.2
25/07:00am 10.3 8.4 7.7 84 1.2 W 7 9 4 5 1015.6 1015.7 0.2
25/06:30am 12.6 9.5 7.3 70 2.6 N 13 15 7 8 1015.1 - 0.2
25/06:00am 12.3 8.4 7.2 71 2.5 NNE 17 20 9 11 1014.8 1014.9 0.2
25/05:30am 10.2 8.2 7.3 82 1.4 N 7 9 4 5 1014.7 - 0.2
25/05:00am 9.6 8.9 7.0 84 1.2 CALM 0 0 0 0 1014.6 1014.7 0.2
25/04:30am 9.5 7.1 7.1 85 1.1 NNE 9 11 5 6 1014.5 - 0.2
25/04:00am 10.6 8.1 6.7 77 1.8 NE 9 11 5 6 1014.3 1014.4 0.2
25/03:30am 10.6 6.7 7.1 79 1.7 NNE 17 19 9 10 1014.3 - 0.2
25/03:00am 9.8 6.9 6.7 81 1.5 ENE 11 15 6 8 1014.2 1014.3 0.2
25/02:30am 8.2 6.0 6.0 86 1.0 NNE 7 11 4 6 1014.3 - 0.2
25/02:00am 9.2 6.9 5.9 80 1.5 NE 7 9 4 5 1014.4 1014.5 0.2
25/01:30am 9.6 7.6 6.3 80 1.5 ENE 6 7 3 4 1014.4 - 0.2
25/01:00am 9.8 7.6 6.2 78 1.7 NE 7 11 4 6 1014.6 1014.7 0.2
25/12:30am 10.5 7.7 6.8 78 1.7 NE 11 15 6 8 1014.7 - 0.2
25/12:00am 9.7 6.4 6.2 79 1.6 NE 13 15 7 8 1014.9 1015.0 0.2
 
Date/Time
EST
Temp
°C
App
Temp
°C
Dew
Point
Rel
Hum
%
Delta-T
°C
Wind Press
QNH
hPa
Press
MSL
hPa
Rain
since 9 am
mm
Dir
 
Spd
km/h
Gust
km/h
Spd
kts
Gust
kts
24/11:30pm 11.0 7.9 7.3 78 1.8 NE 13 17 7 9 1015.1 - 0.2
24/11:00pm 10.7 7.7 7.8 82 1.4 ENE 13 17 7 9 1015.2 1015.3 0.2
24/10:30pm 10.4 8.1 7.6 83 1.3 ENE 9 13 5 7 1015.5 - 0.2
24/10:00pm 10.6 8.1 8.0 84 1.3 NE 11 15 6 8 1015.6 1015.7 0.2
24/09:30pm 9.8 8.2 7.9 88 0.9 E 6 9 3 5 1015.6 - 0.2
24/09:00pm 10.1 8.0 8.2 88 0.9 ENE 9 15 5 8 1015.7 1015.8 0.0
24/08:30pm 10.0 7.9 8.3 89 0.8 NNE 9 11 5 6 1015.9 - 0.0
24/08:00pm 10.0 7.0 7.9 87 1.0 NE 13 15 7 8 1015.6 1015.7 0.0
24/07:30pm 9.8 7.5 7.6 86 1.1 ENE 9 11 5 6 1015.7 - 0.0
24/07:00pm 9.9 7.3 7.7 86 1.1 NE 11 13 6 7 1015.7 1015.8 0.0
24/06:30pm 9.6 7.7 7.5 87 1.0 NE 7 9 4 5 1015.5 - 0.0
24/06:00pm 10.0 9.1 7.8 86 1.1 NNE 2 9 1 5 1015.4 1015.5 0.0
24/05:30pm 11.5 9.7 7.8 78 1.8 ENE 7 9 4 5 1015.4 - 0.0
24/05:00pm 11.8 10.0 8.1 78 1.8 NE 7 9 4 5 1015.4 1015.5 0.0
24/04:30pm 12.5 11.0 9.0 79 1.8 E 7 9 4 5 1015.3 - 0.0
24/04:00pm 12.8 11.6 9.6 81 1.6 ENE 6 9 3 5 1015.5 1015.6 0.0
24/03:30pm 13.9 12.8 10.5 80 1.8 ENE 7 9 4 5 1015.4 - 0.0
24/03:00pm 14.5 14.8 10.9 79 1.9 CALM 0 0 0 0 1015.3 1015.4 0.0
24/02:30pm 15.0 14.8 9.1 68 3.0 CALM 0 0 0 0 1014.9 - 0.0
24/02:00pm 15.5 15.0 8.0 61 3.8 CALM 0 0 0 0 1014.9 1015.0 0.0
24/01:30pm 16.0 14.8 9.7 66 3.3 NE 6 9 3 5 1015.4 - 0.0
24/01:00pm 14.6 14.9 11.0 79 1.9 CALM 0 0 0 0 1015.6 1015.7 0.0
24/12:30pm 12.8 12.3 9.3 79 1.8 ESE 2 7 1 4 1016.1 - 0.0
24/12:00pm 12.0 11.7 10.1 88 1.0 E 2 7 1 4 1016.6 1016.7 0.0
24/11:30am 10.2 10.2 9.9 98 0.2 CALM 0 0 0 0 1017.2 - 0.0
24/11:00am 8.7 8.4 8.6 99 0.0 CALM 0 0 0 0 1017.7 1017.8 0.0
24/10:30am 8.2 6.6 8.2 100 0.0 ESE 6 7 3 4 1017.6 - 0.0
24/10:00am 7.4 5.5 7.4 100 0.0 NNW 7 9 4 5 1017.9 1018.0 0.0
24/09:30am 6.9 6.2 6.9 100 0.0 CALM 0 0 0 0 1017.9 - 0.0
24/09:00am 6.0 4.7 6.0 100 0.0 NNW 2 6 1 3 1017.9 1018.0 0.0
24/08:30am 4.7 2.2 4.7 100 0.0 NNE 7 9 4 5 1018.0 - 0.0
24/08:00am 3.7 0.6 3.7 100 0.0 NNE 9 13 5 7 1018.0 1018.1 0.0
24/07:30am 3.8 1.1 3.8 100 0.0 W 7 11 4 6 1017.8 - 0.0
24/07:00am 5.0 1.8 5.0 100 0.0 W 11 15 6 8 1017.8 1017.9 0.0
24/06:30am 4.5 2.1 4.5 100 0.0 W 6 9 3 5 1017.9 - 0.0
24/06:00am 5.5 4.1 5.5 100 0.0 W 2 6 1 3 1017.6 1017.7 0.0
24/05:30am 5.4 2.3 5.4 100 0.0 W 11 13 6 7 1017.6 - 0.0
24/05:00am 4.9 2.0 4.9 100 0.0 W 9 11 5 6 1017.3 1017.4 0.0
24/04:30am 4.0 2.7 4.0 100 0.0 CALM 0 0 0 0 1017.2 - 0.0
24/04:00am 4.5 3.3 4.5 100 0.0 CALM 0 0 0 0 1017.3 1017.4 0.0
24/03:30am 4.4 1.8 4.4 100 0.0 E 7 9 4 5 1017.4 - 0.0
24/03:00am 4.6 2.3 4.6 100 0.0 SW 6 7 3 4 1017.8 1017.9 0.0
24/02:30am 6.0 4.7 6.0 100 0.0 NNE 2 6 1 3 1017.8 - 0.0
24/02:00am 7.1 6.4 7.1 100 0.0 CALM 0 0 0 0 1018.0 1018.1 0.0
24/01:30am 9.4 8.0 9.4 100 0.0 NE 7 11 4 6 1018.2 - 0.0
24/01:00am 9.0 6.7 9.0 100 0.0 NNE 11 15 6 8 1018.3 1018.4 0.0
24/12:30am 7.4 5.5 7.4 100 0.0 NE 7 9 4 5 1018.5 - 0.0
24/12:00am 7.4 5.0 7.1 98 0.1 NNE 9 11 5 6 1018.9 1019.0 0.0
 
Date/Time
EST
Temp
°C
App
Temp
°C
Dew
Point
Rel
Hum
%
Delta-T
°C
Wind Press
QNH
hPa
Press
MSL
hPa
Rain
since 9 am
mm
Dir
 
Spd
km/h
Gust
km/h
Spd
kts
Gust
kts
23/11:30pm 8.1 6.3 8.0 99 0.0 NNE 7 9 4 5 1019.6 - 0.0
23/11:00pm 8.2 6.1 8.2 100 0.0 NNE 9 11 5 6 1019.9 1020.0 0.0
23/10:30pm 7.7 4.7 7.7 100 0.0 NE 13 15 7 8 1020.4 - 0.0
23/10:00pm 5.7 2.3 5.7 100 0.0 NNE 13 15 7 8 1020.8 1020.9 0.0
23/09:30pm 4.4 1.4 4.3 99 0.0 NNE 9 13 5 7 1020.8 - 0.0
23/09:00pm 4.9 1.3 4.8 99 0.0 NNE 13 13 7 7 1021.1 1021.2 0.0
23/08:30pm 5.5 2.8 5.4 99 0.0 NNE 9 11 5 6 1021.1 - 0.0
23/08:00pm 4.6 0.9 4.2 97 0.2 NNE 13 13 7 7 1021.0 1021.1 0.0
23/07:30pm 6.0 4.6 5.7 98 0.1 NE 2 9 1 5 1020.9 - 0.0
23/07:00pm 6.7 4.8 6.6 99 0.0 ENE 6 9 3 5 1020.8 1020.9 0.0
23/06:30pm 6.4 3.7 5.4 93 0.4 NE 9 11 5 6 1020.8 - 0.0
23/06:00pm 7.7 5.6 6.6 93 0.5 ENE 7 11 4 6 1020.5 1020.6 0.0
23/05:30pm 8.5 6.1 6.8 89 0.8 ENE 9 11 5 6 1020.3 - 0.0
23/05:00pm 9.8 7.9 7.4 85 1.1 ENE 7 9 4 5 1020.3 1020.4 0.0
23/04:30pm 11.1 8.6 8.3 83 1.4 ENE 11 15 6 8 1020.2 - 0.0
23/04:00pm 11.4 8.2 8.3 81 1.5 E 15 20 8 11 1020.3 1020.4 0.0
23/03:30pm 12.1 9.1 9.1 82 1.5 E 15 20 8 11 1020.3 - 0.0
23/03:00pm 12.8 9.8 9.4 80 1.7 E 15 20 8 11 1020.4 1020.5 0.0
23/02:30pm 13.9 11.0 8.3 69 2.8 ENE 13 17 7 9 1020.4 - 0.0
23/02:00pm 13.9 11.1 8.5 70 2.7 ENE 13 19 7 10 1020.5 1020.6 0.0
23/01:30pm 14.2 11.5 9.0 71 2.6 ENE 13 20 7 11 1021.0 - 0.0
23/01:00pm 13.9 11.1 8.7 71 2.6 ENE 13 19 7 10 1021.6 1021.7 0.0
23/12:30pm 13.6 10.9 8.9 73 2.4 ENE 13 19 7 10 1022.1 - 0.0
23/12:00pm 13.2 10.5 8.9 75 2.2 ENE 13 20 7 11 1022.6 1022.7 0.0
23/11:30am 12.5 9.4 8.8 78 1.9 ENE 15 20 8 11 1023.3 - 0.0
23/11:00am 13.0 11.0 10.0 82 1.5 NE 11 17 6 9 1023.9 1024.0 0.0
23/10:30am 11.6 9.6 8.5 81 1.5 NE 9 13 5 7 1024.1 - 0.0
23/10:00am 10.5 10.5 9.9 96 0.3 CALM 0 0 0 0 1024.4 1024.5 0.0
23/09:30am 7.6 7.0 7.6 100 0.0 CALM 0 0 0 0 1024.5 - 0.0
23/09:00am 5.5 4.5 5.5 100 0.0 CALM 0 0 0 0 1024.5 1024.6 0.0
23/08:30am 2.3 0.7 2.3 100 0.0 CALM 0 0 0 0 1024.6 - 0.0
23/08:00am 0.4 -1.5 0.4 100 0.0 CALM 0 0 0 0 1024.5 1024.6 0.0
23/07:30am 0.0 -2.0 0.0 100 0.0 CALM 0 0 0 0 1024.5 - 0.0
23/07:00am 0.2 -1.8 0.2 100 0.0 CALM 0 0 0 0 1024.2 1024.3 0.0
23/06:30am 0.7 -1.2 0.7 100 0.0 CALM 0 0 0 0 1024.0 - 0.0
23/06:00am 0.9 -0.9 0.9 100 0.0 CALM 0 0 0 0 1023.9 1024.0 0.0
23/05:30am 1.2 -0.6 1.2 100 0.0 CALM 0 0 0 0 1023.7 - 0.0
23/05:00am 1.9 0.2 1.9 100 0.0 CALM 0 0 0 0 1023.6 1023.7 0.0
23/04:30am 1.9 0.2 1.9 100 0.0 CALM 0 0 0 0 1023.8 - 0.0
23/04:00am 2.3 -0.5 2.3 100 0.0 NNW 6 7 3 4 1023.8 1023.9 0.0
23/03:30am 2.1 -0.9 2.1 100 0.0 NW 7 7 4 4 1023.9 - 0.0
23/03:00am 1.8 0.1 1.8 100 0.0 CALM 0 0 0 0 1023.9 1024.0 0.0
23/02:30am 1.8 0.1 1.8 100 0.0 CALM 0 0 0 0 1024.1 - 0.0
23/02:00am 1.8 0.1 1.8 100 0.0 CALM 0 0 0 0 1024.4 1024.5 0.0
23/01:30am 1.8 0.1 1.8 100 0.0 CALM 0 0 0 0 1024.4 - 0.0
23/01:00am 1.4 -0.4 1.4 100 0.0 CALM 0 0 0 0 1024.6 1024.7 0.0
23/12:30am 1.7 0.0 1.7 100 0.0 CALM 0 0 0 0 1024.5 - 0.0
23/12:00am 0.9 -0.9 0.9 100 0.0 CALM 0 0 0 0 1024.9 1025.0 0.0
 
Date/Time
EST
Temp
°C
App
Temp
°C
Dew
Point
Rel
Hum
%
Delta-T
°C
Wind Press
QNH
hPa
Press
MSL
hPa
Rain
since 9 am
mm
Dir
 
Spd
km/h
Gust
km/h
Spd
kts
Gust
kts
22/11:30pm 1.4 -0.4 1.4 100 0.0 CALM 0 6 0 3 1025.1 - 0.0
22/11:00pm 1.4 -0.4 1.4 100 0.0 CALM 0 6 0 3 1025.2 1025.3 0.0
22/10:30pm 1.4 -1.5 1.4 100 0.0 NW 6 7 3 4 1025.3 - 0.0
22/10:00pm 3.4 2.0 3.4 100 0.0 CALM 0 0 0 0 1025.3 1025.4 0.0
22/09:30pm 2.4 0.4 2.4 100 0.0 N 2 6 1 3 1025.2 - 0.0
22/09:00pm 2.6 -0.1 2.6 100 0.0 N 6 7 3 4 1025.1 1025.2 0.0
22/08:30pm 3.4 0.8 3.3 99 0.0 NNW 6 6 3 3 1025.1 - 0.0
22/08:00pm 4.1 1.6 4.0 99 0.0 NNW 6 6 3 3 1025.0 1025.1 0.0
22/07:30pm 4.8 2.4 4.4 97 0.2 N 6 7 3 4 1025.1 - 0.0
22/07:00pm 5.6 3.2 5.2 97 0.2 N 7 9 4 5 1025.0 1025.1 0.0

Other Formats:

Comma delimited format used in spreadsheet applications
http://www.bom.gov.au/fwo/IDV60801/IDV60801.95890.axf

JavaScript Object Notation format (JSON) in row-major order
http://www.bom.gov.au/fwo/IDV60801/IDV60801.95890.json